Time;durP1;ratioP1;P1;durP2;ratioP2;P2;SDS_P1;SDS_P2;PMS_P1;PMS_P2;Temp;Humidity;BMP_temperature;BMP_pressure;BME280_temperature;BME280_humidity;BME280_pressure;Samples;Min_cycle;Max_cycle;Signal;HPM_P1;HPM_P2
2023/04/27 00:01:10;;;;;;;21.75;11.85;;;;;;;3.08;88.69;101974.59;5030771;28;20444;-47
2023/04/27 00:03:35;;;;;;;19.45;11.48;;;;;;;3.06;89.31;101976.72;5030923;28;20433;-46
2023/04/27 00:06:00;;;;;;;19.42;11.70;;;;;;;3.01;89.82;101974.69;5030723;28;20473;-50
2023/04/27 00:08:26;;;;;;;22.02;12.05;;;;;;;2.99;89.37;101973.25;5030785;28;20032;-44
2023/04/27 00:10:51;;;;;;;21.95;11.75;;;;;;;2.98;89.17;101975.13;5030960;28;20385;-47
2023/04/27 00:13:16;;;;;;;21.25;11.95;;;;;;;2.97;89.58;101984.41;5030729;28;20464;-47
2023/04/27 00:15:44;;;;;;;22.27;11.88;;;;;;;2.91;90.54;101971.63;5030785;28;20111;-44
2023/04/27 00:18:09;;;;;;;19.40;11.85;;;;;;;2.81;91.05;101974.91;5034400;28;20033;-45
2023/04/27 00:20:35;;;;;;;20.30;11.38;;;;;;;2.76;91.63;101974.72;5034653;28;20044;-45
2023/04/27 00:23:00;;;;;;;21.05;11.50;;;;;;;2.70;92.11;101976.47;5034547;28;20036;-47
2023/04/27 00:25:25;;;;;;;22.13;12.10;;;;;;;2.63;92.44;101975.69;5033228;28;20037;-49
2023/04/27 00:27:51;;;;;;;20.85;12.07;;;;;;;2.59;92.88;101980.78;5031731;28;20415;-49
2023/04/27 00:30:16;;;;;;;21.38;12.23;;;;;;;2.53;92.46;101975.38;5034515;28;20033;-48
2023/04/27 00:32:41;;;;;;;20.77;12.27;;;;;;;2.50;92.46;101968.47;5034008;28;20088;-46
2023/04/27 00:35:07;;;;;;;19.98;12.40;;;;;;;2.45;93.02;101960.13;5034527;28;20026;-46
2023/04/27 00:37:32;;;;;;;21.20;12.73;;;;;;;2.41;93.74;101972.53;5033082;28;20091;-45
2023/04/27 00:39:57;;;;;;;21.98;12.07;;;;;;;2.41;93.55;101976.09;5034331;28;20022;-47
2023/04/27 00:42:23;;;;;;;20.00;11.95;;;;;;;2.42;93.59;101976.94;5034385;28;20095;-46
2023/04/27 00:44:49;;;;;;;19.90;11.38;;;;;;;2.43;93.52;101982.19;5034204;28;20052;-46
2023/04/27 00:47:16;;;;;;;20.98;12.23;;;;;;;2.40;93.45;101979.91;5032969;28;20381;-46
2023/04/27 00:49:41;;;;;;;21.05;12.13;;;;;;;2.35;93.61;101977.00;5034202;28;20459;-46
2023/04/27 00:52:06;;;;;;;21.35;12.88;;;;;;;2.32;94.41;101977.44;5033593;28;20477;-46
2023/04/27 00:54:32;;;;;;;21.35;12.15;;;;;;;2.25;94.63;101982.97;5033931;28;20030;-46
2023/04/27 00:56:58;;;;;;;25.33;12.68;;;;;;;2.22;94.63;101974.41;5033834;28;20417;-46
2023/04/27 00:59:24;;;;;;;19.92;12.10;;;;;;;2.12;95.28;101975.72;5033965;28;20029;-46
2023/04/27 01:01:49;;;;;;;21.33;12.73;;;;;;;2.07;95.60;101974.72;5033684;28;20029;-45
2023/04/27 01:04:16;;;;;;;21.98;12.57;;;;;;;2.05;96.06;101969.44;5033735;28;20021;-47
2023/04/27 01:06:41;;;;;;;20.52;12.20;;;;;;;2.03;95.95;101972.41;5033596;28;20030;-48
2023/04/27 01:09:08;;;;;;;21.90;12.27;;;;;;;2.01;96.89;101979.16;5033571;28;20105;-46
2023/04/27 01:11:33;;;;;;;21.65;12.63;;;;;;;1.96;96.71;101979.81;5033823;28;20033;-46
2023/04/27 01:14:03;;;;;;;23.02;12.48;;;;;;;1.95;97.24;101974.56;5033465;28;20025;-48
2023/04/27 01:16:29;;;;;;;21.92;11.77;;;;;;;1.95;96.95;101974.56;5033598;28;20082;-46
2023/04/27 01:18:54;;;;;;;20.73;12.35;;;;;;;1.94;97.83;101973.75;5033341;28;20025;-47
2023/04/27 01:21:19;;;;;;;20.42;12.00;;;;;;;1.91;97.06;101974.16;5033497;28;20433;-47
2023/04/27 01:23:45;;;;;;;23.13;14.25;;;;;;;1.92;96.74;101975.03;5029376;28;20025;-47
2023/04/27 01:26:12;;;;;;;22.25;12.55;;;;;;;1.93;96.96;101968.50;5033175;28;20509;-45
2023/04/27 01:28:37;;;;;;;22.27;12.70;;;;;;;1.91;97.13;101978.81;5032480;28;20116;-47
2023/04/27 01:31:03;;;;;;;21.98;12.77;;;;;;;1.90;97.72;101974.41;5033404;28;20859;-45
2023/04/27 01:33:28;;;;;;;21.23;12.45;;;;;;;1.82;96.87;101970.88;5033451;28;20803;-46
2023/04/27 01:35:53;;;;;;;21.58;13.45;;;;;;;1.79;97.17;101975.94;5046291;28;20077;-49
2023/04/27 01:38:18;;;;;;;20.05;11.90;;;;;;;1.74;98.11;101984.78;5053041;28;20074;-45
2023/04/27 01:40:44;;;;;;;20.80;12.55;;;;;;;1.73;97.82;101979.53;5051682;28;20139;-45
2023/04/27 01:43:09;;;;;;;22.23;12.90;;;;;;;1.73;98.24;101972.19;5052893;28;20040;-45
2023/04/27 01:45:34;;;;;;;21.77;13.07;;;;;;;1.72;97.46;101970.53;5052840;28;20041;-47
2023/04/27 01:48:00;;;;;;;21.48;12.07;;;;;;;1.69;97.85;101974.53;5052699;28;20057;-45
2023/04/27 01:50:26;;;;;;;20.38;12.30;;;;;;;1.70;98.01;101969.91;5052347;28;20082;-45
2023/04/27 01:52:51;;;;;;;20.02;12.38;;;;;;;1.69;97.71;101968.22;5052663;28;20116;-45
2023/04/27 01:55:16;;;;;;;21.58;11.77;;;;;;;1.69;97.53;101963.63;5052820;28;20025;-47
2023/04/27 01:57:42;;;;;;;21.92;12.25;;;;;;;1.66;98.09;101965.91;5052459;28;20170;-47
2023/04/27 02:00:08;;;;;;;22.00;11.82;;;;;;;1.62;98.05;101960.06;5052679;28;20104;-44
2023/04/27 02:02:33;;;;;;;20.17;11.52;;;;;;;1.60;98.10;101964.09;5051199;28;20029;-44
2023/04/27 02:04:58;;;;;;;21.10;12.80;;;;;;;1.54;98.06;101963.06;5052503;28;20039;-45
2023/04/27 02:07:24;;;;;;;21.40;12.55;;;;;;;1.50;98.28;101962.66;5052548;28;20036;-48
2023/04/27 02:09:49;;;;;;;21.20;12.65;;;;;;;1.48;98.89;101961.22;5052480;28;20378;-45
2023/04/27 02:12:14;;;;;;;23.00;12.23;;;;;;;1.45;98.32;101954.31;5052587;28;20029;-45
2023/04/27 02:14:40;;;;;;;20.92;11.90;;;;;;;1.47;98.33;101954.09;5052480;28;20033;-46
2023/04/27 02:17:05;;;;;;;22.83;13.57;;;;;;;1.43;98.83;101959.13;5050120;28;20615;-45
2023/04/27 02:19:30;;;;;;;21.63;12.32;;;;;;;1.41;98.24;101950.34;5051271;28;20166;-45
2023/04/27 02:21:56;;;;;;;20.27;11.70;;;;;;;1.42;98.38;101957.47;5050833;28;20111;-44
2023/04/27 02:24:21;;;;;;;20.48;11.80;;;;;;;1.43;98.41;101958.28;5052259;28;20025;-44
2023/04/27 02:26:47;;;;;;;21.38;12.50;;;;;;;1.43;98.22;101961.00;5052080;28;20134;-47
2023/04/27 02:29:12;;;;;;;21.95;12.30;;;;;;;1.38;98.51;101948.88;5050653;28;20025;-44
2023/04/27 02:31:37;;;;;;;20.75;12.27;;;;;;;1.35;98.80;101943.03;5052024;28;20043;-48
2023/04/27 02:34:02;;;;;;;21.25;12.55;;;;;;;1.33;100.00;101947.84;5050392;28;20032;-47
2023/04/27 02:36:28;;;;;;;21.33;12.52;;;;;;;1.33;99.72;101934.22;5051833;28;20472;-45
2023/04/27 02:38:53;;;;;;;21.15;11.82;;;;;;;1.31;100.00;101931.72;5051977;28;20032;-46
2023/04/27 02:41:18;;;;;;;21.83;12.32;;;;;;;1.31;99.45;101929.00;5052015;28;20029;-44
2023/04/27 02:43:45;;;;;;;20.98;11.48;;;;;;;1.32;99.32;101938.84;5051844;28;20056;-44
2023/04/27 02:46:11;;;;;;;22.60;12.30;;;;;;;1.30;99.59;101938.22;5049953;28;20123;-45
2023/04/27 02:48:36;;;;;;;21.67;11.95;;;;;;;1.30;99.37;101938.22;5051541;28;20025;-48
2023/04/27 02:51:04;;;;;;;22.02;12.77;;;;;;;1.29;99.92;101935.69;5051728;28;20053;-46
2023/04/27 02:53:30;;;;;;;22.92;13.95;;;;;;;1.26;100.00;101933.44;5051512;28;20043;-48
2023/04/27 02:55:57;;;;;;;22.02;13.05;;;;;;;1.22;100.00;101933.03;5049968;28;20385;-48
2023/04/27 02:58:22;;;;;;;22.25;13.57;;;;;;;1.17;100.00;101944.56;5050057;28;20025;-44
2023/04/27 03:00:53;;;;;;;20.23;12.45;;;;;;;1.15;100.00;101935.78;5051529;28;20021;-44
2023/04/27 03:03:18;;;;;;;23.25;13.95;;;;;;;1.17;100.00;101941.00;5051636;28;20021;-47
2023/04/27 03:05:45;;;;;;;21.75;12.70;;;;;;;1.18;100.00;101943.50;5051267;28;20037;-46
2023/04/27 03:08:10;;;;;;;22.58;13.23;;;;;;;1.19;100.00;101934.28;5051465;28;20491;-45
2023/04/27 03:10:35;;;;;;;22.63;13.18;;;;;;;1.20;100.00;101937.84;5051046;28;20061;-44
2023/04/27 03:13:01;;;;;;;23.92;13.15;;;;;;;1.19;100.00;101945.19;5044081;28;20079;-44
2023/04/27 03:15:26;;;;;;;21.27;12.20;;;;;;;1.18;100.00;101939.94;5049205;28;20025;-44
2023/04/27 03:17:51;;;;;;;21.88;13.07;;;;;;;1.19;100.00;101944.34;5050925;28;20053;-45
2023/04/27 03:20:16;;;;;;;22.23;12.73;;;;;;;1.21;100.00;101936.81;5050919;28;20017;-47
2023/04/27 03:22:44;;;;;;;21.35;13.02;;;;;;;1.16;100.00;101936.59;5050642;28;20028;-43
2023/04/27 03:25:10;;;;;;;22.52;13.07;;;;;;;1.11;100.00;101941.88;5049788;28;20056;-43
2023/04/27 03:27:35;;;;;;;22.55;13.27;;;;;;;1.05;100.00;101940.84;5049406;28;20469;-44
2023/04/27 03:30:02;;;;;;;25.23;13.60;;;;;;;1.03;100.00;101937.50;5051099;28;20033;-46
2023/04/27 03:32:27;;;;;;;22.75;12.82;;;;;;;1.00;100.00;101936.03;5050567;28;20025;-45
2023/04/27 03:34:53;;;;;;;25.23;13.40;;;;;;;0.98;100.00;101949.03;5049387;28;20098;-45
2023/04/27 03:37:18;;;;;;;22.67;13.02;;;;;;;0.93;100.00;101952.41;5051164;28;20495;-45
2023/04/27 03:39:44;;;;;;;23.90;12.65;;;;;;;0.95;100.00;101960.34;5050769;28;20025;-48
2023/04/27 03:42:09;;;;;;;25.58;13.90;;;;;;;0.93;100.00;101960.56;5050741;28;20112;-46
2023/04/27 03:44:35;;;;;;;21.58;13.05;;;;;;;0.93;100.00;101960.56;5050862;28;20021;-44
2023/04/27 03:47:00;;;;;;;22.60;13.60;;;;;;;0.93;100.00;101968.75;5050501;28;20419;-44
2023/04/27 03:49:26;;;;;;;21.88;13.02;;;;;;;0.92;100.00;101958.91;5050247;28;20029;-44
2023/04/27 03:51:51;;;;;;;22.33;12.60;;;;;;;0.91;100.00;101964.56;5050294;28;20514;-44
2023/04/27 03:54:17;;;;;;;24.75;13.35;;;;;;;0.91;100.00;101959.13;5050771;28;20028;-45
2023/04/27 03:56:43;;;;;;;23.67;13.25;;;;;;;0.90;100.00;101965.63;5050737;28;20369;-48
2023/04/27 03:59:08;;;;;;;22.35;13.57;;;;;;;0.89;100.00;101963.94;5050541;28;20029;-47
2023/04/27 04:01:34;;;;;;;23.10;13.75;;;;;;;0.86;100.00;101967.94;5050404;28;20083;-44
2023/04/27 04:03:59;;;;;;;22.90;13.82;;;;;;;0.84;100.00;101964.59;5050510;28;20021;-46
2023/04/27 04:06:24;;;;;;;24.27;13.82;;;;;;;0.82;100.00;101966.69;5050321;28;20021;-46
2023/04/27 04:08:50;;;;;;;22.48;12.90;;;;;;;0.81;100.00;101962.28;5046416;28;20392;-45
2023/04/27 04:11:15;;;;;;;21.90;13.27;;;;;;;0.85;100.00;101968.16;5049366;28;20033;-45
2023/04/27 04:13:41;;;;;;;25.88;14.63;;;;;;;0.84;100.00;101966.50;5050522;28;20464;-45
2023/04/27 04:16:08;;;;;;;23.38;13.85;;;;;;;0.82;100.00;101968.56;5050068;28;20394;-43
2023/04/27 04:18:34;;;;;;;25.13;13.55;;;;;;;0.83;100.00;101967.53;5050165;28;20138;-43
2023/04/27 04:20:59;;;;;;;23.17;13.52;;;;;;;0.83;100.00;101973.81;5050481;28;20378;-45
2023/04/27 04:23:26;;;;;;;23.10;13.68;;;;;;;0.83;100.00;101973.81;5050330;28;20507;-45
2023/04/27 04:25:53;;;;;;;24.65;13.85;;;;;;;0.84;100.00;101970.03;5050220;28;20499;-46
2023/04/27 04:28:18;;;;;;;24.23;13.07;;;;;;;0.86;100.00;101978.84;5050348;28;20025;-45
2023/04/27 04:30:44;;;;;;;21.58;12.88;;;;;;;0.87;100.00;101971.47;5050331;28;20043;-46
2023/04/27 04:33:09;;;;;;;23.17;12.93;;;;;;;0.87;100.00;101976.94;5050707;28;20044;-47
2023/04/27 04:35:40;;;;;;;22.83;12.73;;;;;;;0.92;100.00;101986.16;5050488;28;20032;-46
2023/04/27 04:38:06;;;;;;;22.42;12.95;;;;;;;0.97;100.00;101984.69;5050357;28;20045;-48
2023/04/27 04:40:31;;;;;;;22.80;13.05;;;;;;;0.99;100.00;101986.13;5050214;28;20025;-47
2023/04/27 04:42:56;;;;;;;22.17;13.00;;;;;;;1.00;100.00;101982.38;5050348;28;20025;-49
2023/04/27 04:45:22;;;;;;;22.95;12.77;;;;;;;1.03;100.00;101986.53;5049154;28;20035;-48
2023/04/27 04:47:50;;;;;;;24.98;13.52;;;;;;;1.03;100.00;101998.31;5050188;28;20461;-44
2023/04/27 04:50:16;;;;;;;22.63;12.55;;;;;;;1.05;100.00;101998.91;5049907;28;20043;-45
2023/04/27 04:52:41;;;;;;;24.85;13.15;;;;;;;1.07;100.00;101995.97;5050579;28;20025;-46
2023/04/27 04:55:07;;;;;;;25.55;13.13;;;;;;;1.12;100.00;101996.16;5050430;28;20025;-46
2023/04/27 04:57:32;;;;;;;24.38;12.90;;;;;;;1.17;100.00;101995.53;5048675;28;20028;-45
2023/04/27 04:59:57;;;;;;;23.38;12.40;;;;;;;1.22;100.00;102002.00;5048794;28;20446;-47
2023/04/27 05:02:23;;;;;;;25.20;13.85;;;;;;;1.27;100.00;102004.09;5049946;28;20457;-45
2023/04/27 05:04:50;;;;;;;23.92;12.60;;;;;;;1.32;100.00;102006.16;5051717;28;20025;-46
2023/04/27 05:07:16;;;;;;;25.05;13.00;;;;;;;1.37;100.00;101999.00;5049894;28;20489;-46
2023/04/27 05:09:41;;;;;;;22.65;13.07;;;;;;;1.43;100.00;101996.47;5053486;28;20132;-45
2023/04/27 05:12:07;;;;;;;24.90;13.68;;;;;;;1.50;100.00;102005.47;5053510;28;20021;-44
2023/04/27 05:14:33;;;;;;;23.55;13.40;;;;;;;1.59;100.00;102009.63;5053309;28;20075;-44
2023/04/27 05:16:58;;;;;;;23.70;13.52;;;;;;;1.64;100.00;102004.34;5053620;28;20102;-44
2023/04/27 05:19:24;;;;;;;22.67;13.18;;;;;;;1.71;100.00;102001.59;5052065;28;20429;-45
2023/04/27 05:21:50;;;;;;;23.98;13.63;;;;;;;1.77;100.00;102005.34;5049229;28;20074;-46
2023/04/27 05:24:15;;;;;;;23.90;13.30;;;;;;;1.81;100.00;102009.28;5043725;28;20108;-46
2023/04/27 05:26:42;;;;;;;24.15;13.48;;;;;;;1.88;100.00;102007.38;5042143;28;20507;-44
2023/04/27 05:29:07;;;;;;;24.40;13.10;;;;;;;1.96;100.00;102009.00;5041244;28;20032;-45
2023/04/27 05:31:34;;;;;;;23.25;13.93;;;;;;;2.03;100.00;101999.72;5033342;28;20025;-44
2023/04/27 05:33:59;;;;;;;23.77;13.27;;;;;;;2.14;100.00;102011.81;5033372;28;20021;-46
2023/04/27 05:36:27;;;;;;;25.85;14.25;;;;;;;2.25;100.00;102003.97;5033224;28;20034;-46
2023/04/27 05:38:52;;;;;;;25.10;14.27;;;;;;;2.32;99.26;102008.31;5033167;28;20037;-45
2023/04/27 05:41:18;;;;;;;24.98;14.77;;;;;;;2.41;99.48;102003.41;5033204;28;20021;-46
2023/04/27 05:43:43;;;;;;;25.17;15.10;;;;;;;2.46;99.22;102008.19;5031743;28;20034;-45
2023/04/27 05:46:12;;;;;;;25.15;14.45;;;;;;;2.56;98.76;102015.91;5033404;28;20116;-46
2023/04/27 05:48:38;;;;;;;25.60;14.77;;;;;;;2.63;98.52;102013.94;5048718;28;20536;-46
2023/04/27 05:51:03;;;;;;;24.55;14.60;;;;;;;2.69;97.46;102012.22;5052765;28;20128;-45
2023/04/27 05:53:29;;;;;;;26.38;14.85;;;;;;;2.72;97.04;102007.13;5052437;28;20033;-45
2023/04/27 05:55:57;;;;;;;26.35;14.93;;;;;;;2.79;96.76;102007.09;5051287;28;20057;-46
2023/04/27 05:58:23;;;;;;;25.13;14.00;;;;;;;2.84;96.33;102014.59;5052751;28;20029;-44
2023/04/27 06:00:48;;;;;;;24.55;13.90;;;;;;;2.88;96.38;102010.38;5049273;28;20097;-46
2023/04/27 06:03:13;;;;;;;25.23;14.10;;;;;;;2.94;96.37;102017.66;5052528;28;20089;-44
2023/04/27 06:05:39;;;;;;;24.67;13.30;;;;;;;3.00;95.90;102013.19;5052659;28;20547;-44
2023/04/27 06:08:05;;;;;;;22.33;13.38;;;;;;;3.06;96.10;102012.28;5051112;28;20064;-44
2023/04/27 06:10:30;;;;;;;22.17;13.35;;;;;;;3.16;95.47;102014.50;5052603;28;20029;-47
2023/04/27 06:12:55;;;;;;;22.98;13.43;;;;;;;3.26;95.74;102015.63;5052470;28;20473;-47
2023/04/27 06:15:20;;;;;;;24.98;14.07;;;;;;;3.37;95.23;102016.75;5052058;28;20104;-45
2023/04/27 06:17:46;;;;;;;22.83;12.88;;;;;;;3.47;94.62;102021.69;5052395;28;20033;-45
2023/04/27 06:20:12;;;;;;;22.77;13.60;;;;;;;3.56;93.78;102009.38;5052450;28;20079;-45
2023/04/27 06:22:38;;;;;;;23.80;12.60;;;;;;;3.65;93.01;102011.78;5052435;28;20055;-46
2023/04/27 06:25:04;;;;;;;22.60;13.20;;;;;;;3.75;91.99;102015.63;5052371;28;20060;-45
2023/04/27 06:27:30;;;;;;;23.00;12.88;;;;;;;3.85;91.84;102008.78;5052459;28;20048;-46
2023/04/27 06:29:55;;;;;;;23.20;12.88;;;;;;;3.98;91.02;102024.16;5052197;28;20103;-46
2023/04/27 06:32:20;;;;;;;21.30;12.10;;;;;;;4.06;89.80;102015.66;5049617;28;20025;-45
2023/04/27 06:34:46;;;;;;;20.80;11.60;;;;;;;4.15;88.25;102016.13;5049157;28;20140;-46
2023/04/27 06:37:13;;;;;;;20.52;12.15;;;;;;;4.22;87.77;102023.19;5050557;28;20033;-47
2023/04/27 06:39:39;;;;;;;22.13;11.85;;;;;;;4.29;87.21;102019.50;5050614;28;20040;-45
2023/04/27 06:42:04;;;;;;;23.33;12.30;;;;;;;4.36;85.92;102018.34;5050592;28;20072;-45
2023/04/27 06:44:29;;;;;;;21.08;11.90;;;;;;;4.41;85.53;102006.69;5050741;28;20071;-47
2023/04/27 06:46:55;;;;;;;22.85;12.35;;;;;;;4.56;85.35;102008.97;5049018;28;20119;-46
2023/04/27 06:49:20;;;;;;;20.90;11.57;;;;;;;4.65;84.06;102013.03;5050469;28;20075;-45
2023/04/27 06:51:47;;;;;;;20.60;11.00;;;;;;;4.75;84.19;102004.19;5050520;28;20043;-45
2023/04/27 06:54:12;;;;;;;20.63;11.88;;;;;;;4.87;84.02;102000.63;5036944;28;20021;-46
2023/04/27 06:56:38;;;;;;;21.80;11.10;;;;;;;5.00;83.82;102008.59;5031985;28;20378;-46
2023/04/27 06:59:03;;;;;;;22.00;11.07;;;;;;;5.11;82.73;101999.50;5030504;28;20030;-48
2023/04/27 07:01:29;;;;;;;20.85;11.77;;;;;;;5.23;82.10;102001.41;5029528;28;20075;-45
2023/04/27 07:03:54;;;;;;;19.75;11.30;;;;;;;5.35;81.41;102009.59;5029182;28;20554;-45
2023/04/27 07:06:21;;;;;;;21.83;11.38;;;;;;;5.49;81.95;102012.91;5031778;28;20035;-45
2023/04/27 07:08:46;;;;;;;20.25;10.93;;;;;;;5.61;80.55;102002.72;5031564;28;20029;-46
2023/04/27 07:11:12;;;;;;;20.42;11.10;;;;;;;5.67;78.77;102007.22;5031475;28;20033;-46
2023/04/27 07:13:37;;;;;;;20.65;11.05;;;;;;;5.81;79.46;102006.97;5031936;28;20065;-48
2023/04/27 07:16:02;;;;;;;20.02;10.85;;;;;;;5.92;77.68;102009.63;5031661;28;20461;-48
2023/04/27 07:18:28;;;;;;;18.52;10.60;;;;;;;6.05;78.37;102004.97;5031822;28;20108;-44
2023/04/27 07:20:54;;;;;;;20.45;11.15;;;;;;;6.13;77.40;102007.31;5031723;28;20044;-45
2023/04/27 07:23:19;;;;;;;19.83;11.40;;;;;;;6.19;75.89;102011.78;5028667;28;20461;-45
2023/04/27 07:25:45;;;;;;;22.50;12.50;;;;;;;6.21;73.96;102009.63;5027393;28;20036;-47
2023/04/27 07:28:10;;;;;;;21.25;11.57;;;;;;;6.28;74.34;102004.00;5029005;28;20034;-45
2023/04/27 07:30:36;;;;;;;21.63;11.90;;;;;;;6.37;73.92;102013.50;5029106;28;20032;-45
2023/04/27 07:33:02;;;;;;;20.30;10.88;;;;;;;6.39;73.79;102013.22;5028892;28;20378;-45
2023/04/27 07:35:27;;;;;;;21.63;11.77;;;;;;;6.49;74.85;102013.41;5028839;28;20029;-46
2023/04/27 07:37:52;;;;;;;21.13;11.65;;;;;;;6.60;74.25;102006.19;5030169;28;20064;-44
2023/04/27 07:40:18;;;;;;;20.45;11.25;;;;;;;6.75;74.60;102018.47;5029782;28;20389;-45
2023/04/27 07:42:45;;;;;;;20.27;11.73;;;;;;;6.85;74.06;102008.47;5030029;28;20068;-47
2023/04/27 07:45:10;;;;;;;23.95;11.55;;;;;;;7.00;74.20;102009.78;5031624;28;20116;-46
2023/04/27 07:47:36;;;;;;;20.13;11.57;;;;;;;7.18;74.32;102000.38;5031432;28;20471;-46
2023/04/27 07:50:03;;;;;;;22.27;11.98;;;;;;;7.32;72.79;102007.19;5031508;28;20461;-47
2023/04/27 07:52:28;;;;;;;21.70;11.73;;;;;;;7.43;72.70;102002.63;5031270;28;20032;-46
2023/04/27 07:54:54;;;;;;;20.00;11.40;;;;;;;7.51;70.07;102000.53;5030043;28;20104;-46
2023/04/27 07:57:19;;;;;;;22.17;11.98;;;;;;;7.59;71.56;101997.34;5031282;28;20446;-46
2023/04/27 07:59:45;;;;;;;21.75;12.25;;;;;;;7.69;71.61;102002.97;5029909;28;20504;-47
2023/04/27 08:02:10;;;;;;;21.08;11.38;;;;;;;7.78;69.95;102003.31;5031542;28;20104;-47
2023/04/27 08:04:36;;;;;;;21.42;11.85;;;;;;;7.89;69.74;101996.81;5031286;28;20028;-46
2023/04/27 08:07:01;;;;;;;22.08;11.25;;;;;;;7.95;67.45;101997.72;5031299;28;20143;-46
2023/04/27 08:09:26;;;;;;;21.70;11.57;;;;;;;7.97;66.89;102004.63;5030040;28;20033;-46
2023/04/27 08:11:51;;;;;;;20.30;11.32;;;;;;;8.08;68.54;102001.97;5031434;28;20041;-47
2023/04/27 08:14:17;;;;;;;20.80;11.25;;;;;;;8.26;68.04;102003.53;5031268;28;20510;-46
2023/04/27 08:16:43;;;;;;;22.08;12.30;;;;;;;8.37;64.75;102007.19;5031385;28;20121;-44
2023/04/27 08:19:09;;;;;;;21.88;11.68;;;;;;;8.43;64.09;102001.47;5029853;28;20030;-45
2023/04/27 08:21:35;;;;;;;19.48;11.30;;;;;;;8.50;64.67;102004.00;5031294;28;20109;-45
2023/04/27 08:24:01;;;;;;;20.90;11.57;;;;;;;8.59;63.84;102004.38;5031325;28;20125;-45
2023/04/27 08:26:27;;;;;;;20.98;11.10;;;;;;;8.69;63.78;102009.16;5030996;28;20042;-49
2023/04/27 08:28:52;;;;;;;19.45;11.52;;;;;;;8.75;63.29;102005.31;5031042;28;20026;-46
2023/04/27 08:31:17;;;;;;;19.48;10.70;;;;;;;8.84;62.40;102000.13;5030810;28;20022;-45
2023/04/27 08:33:43;;;;;;;19.20;10.55;;;;;;;8.98;62.18;102000.47;5030907;28;20036;-46
2023/04/27 08:36:08;;;;;;;20.17;11.05;;;;;;;9.03;60.95;101997.75;5031050;28;20068;-47
2023/04/27 08:38:34;;;;;;;20.02;11.70;;;;;;;9.04;60.43;101991.16;5033702;28;20112;-45
2023/04/27 08:41:00;;;;;;;20.83;11.50;;;;;;;9.13;60.41;101989.53;5034992;28;20029;-47
2023/04/27 08:43:25;;;;;;;19.40;10.90;;;;;;;9.20;59.60;101978.25;5034731;28;20120;-44
2023/04/27 08:45:51;;;;;;;21.17;10.95;;;;;;;9.26;59.31;101971.66;5033237;28;20090;-47
2023/04/27 08:48:17;;;;;;;21.30;10.75;;;;;;;9.31;59.38;101966.13;5034585;28;20108;-47
2023/04/27 08:50:44;;;;;;;19.42;11.13;;;;;;;9.35;58.96;101978.31;5034322;28;20450;-47
2023/04/27 08:53:16;;;;;;;18.88;10.57;;;;;;;9.41;58.59;101972.78;5034511;28;20112;-49
2023/04/27 08:55:41;;;;;;;19.55;10.65;;;;;;;9.61;59.58;101967.34;5034530;28;20064;-45
2023/04/27 08:58:06;;;;;;;19.67;10.70;;;;;;;9.82;58.65;101970.97;5034359;28;20446;-44
2023/04/27 09:00:40;;;;;;;20.42;10.50;;;;;;;9.94;58.48;101976.25;5034263;28;20028;-49
2023/04/27 09:03:07;;;;;;;18.52;10.07;;;;;;;10.08;56.26;101973.78;5034181;28;20133;-49
2023/04/27 09:05:32;;;;;;;19.23;10.07;;;;;;;10.15;55.33;101971.59;5034140;28;20032;-45
2023/04/27 09:08:07;;;;;;;20.35;10.45;;;;;;;10.35;56.48;101975.47;5033995;28;20037;-49
2023/04/27 09:10:46;;;;;;;20.13;10.00;;;;;;;10.43;56.15;101968.59;5034273;28;20484;-47
2023/04/27 09:13:11;;;;;;;19.40;10.70;;;;;;;10.54;54.85;101966.63;5034136;28;20116;-47
2023/04/27 09:15:48;;;;;;;20.67;11.23;;;;;;;10.68;55.86;101981.53;5034240;28;20104;-47
2023/04/27 09:18:19;;;;;;;18.92;10.18;;;;;;;10.64;51.46;101968.53;5033910;28;20044;-44
2023/04/27 09:20:46;;;;;;;19.25;10.02;;;;;;;10.65;51.04;101967.44;5034111;28;20036;-45
2023/04/27 09:23:45;;;;;;;19.80;10.65;;;;;;;10.84;53.42;101965.72;5033810;28;20021;-46
2023/04/27 09:26:20;;;;;;;20.25;10.65;;;;;;;10.93;52.46;101975.13;5033647;28;20052;-47
2023/04/27 09:28:49;;;;;;;19.75;10.63;;;;;;;10.97;52.83;101961.53;5033529;28;20017;-47
2023/04/27 09:31:15;;;;;;;20.30;11.00;;;;;;;11.02;52.88;101972.63;5033567;28;20029;-46
2023/04/27 09:33:40;;;;;;;20.70;10.80;;;;;;;10.97;49.36;101974.56;5032183;28;20033;-45
2023/04/27 09:36:06;;;;;;;18.30;10.00;;;;;;;10.89;49.00;101965.75;5033411;28;20033;-46
2023/04/27 09:38:32;;;;;;;18.52;10.30;;;;;;;10.82;48.99;101962.41;5033343;28;20037;-46
2023/04/27 09:40:58;;;;;;;20.40;10.75;;;;;;;10.92;51.29;101956.84;5033404;28;20025;-46
2023/04/27 09:43:26;;;;;;;18.35;9.82;;;;;;;11.08;50.72;101957.63;5031915;28;20052;-46
2023/04/27 09:45:52;;;;;;;18.27;9.70;;;;;;;11.08;47.96;101960.41;5033316;28;20037;-45
2023/04/27 09:48:20;;;;;;;19.60;10.40;;;;;;;10.98;47.23;101952.13;5032897;28;20029;-46
2023/04/27 09:50:48;;;;;;;19.10;9.57;;;;;;;11.13;47.98;101950.44;5031284;28;20436;-44
2023/04/27 09:53:16;;;;;;;20.75;9.98;;;;;;;11.19;48.59;101946.53;5032995;28;20025;-50
2023/04/27 09:56:25;;;;;;;20.13;10.50;;;;;;;11.23;49.29;101942.91;5032795;28;20029;-45
2023/04/27 09:59:21;;;;;;;19.55;10.30;;;;;;;11.33;49.87;101944.81;5032942;28;20418;-45
2023/04/27 10:01:49;;;;;;;19.02;10.32;;;;;;;11.26;50.10;101951.75;5032930;28;20021;-46
2023/04/27 10:04:35;;;;;;;19.30;10.13;;;;;;;11.45;50.58;101943.63;5032830;28;20137;-44
2023/04/27 10:07:11;;;;;;;19.33;9.85;;;;;;;11.66;50.23;101944.34;5032935;28;20037;-46
2023/04/27 10:09:45;;;;;;;18.30;9.40;;;;;;;11.88;48.54;101943.94;5032697;28;20033;-47
2023/04/27 10:12:16;;;;;;;;;;;;;;;12.05;51.94;101946.31;5033263;28;20060;-45
2023/04/27 10:14:49;;;;;;;20.00;10.30;;;;;;;12.01;46.76;101943.28;5032673;28;19913;-48
2023/04/27 10:17:16;;;;;;;17.95;9.55;;;;;;;11.84;46.16;101943.69;5032673;28;20037;-45
2023/04/27 10:19:53;;;;;;;18.75;9.82;;;;;;;11.80;46.67;101950.09;5032651;28;20037;-46
2023/04/27 10:22:19;;;;;;;20.75;10.30;;;;;;;11.84;47.15;101943.69;5032819;28;20056;-45
2023/04/27 10:24:49;;;;;;;20.48;9.90;;;;;;;11.91;46.31;101945.28;5032462;28;20025;-45
2023/04/27 10:27:21;;;;;;;18.85;10.13;;;;;;;11.84;45.28;101940.06;5032152;28;20045;-45
2023/04/27 10:29:48;;;;;;;18.70;10.18;;;;;;;11.73;45.51;101944.84;5032449;28;20056;-44
2023/04/27 10:32:25;;;;;;;18.63;9.90;;;;;;;11.72;46.50;101937.66;5032281;28;20029;-46
2023/04/27 10:35:07;;;;;;;18.13;9.68;;;;;;;11.84;46.44;101948.38;5030750;28;20025;-47
2023/04/27 10:37:40;;;;;;;18.15;10.05;;;;;;;11.74;46.04;101949.28;5032404;28;20128;-46
2023/04/27 10:40:13;;;;;;;18.30;9.88;;;;;;;11.65;45.36;101940.75;5032068;28;20814;-49
2023/04/27 10:42:39;;;;;;;19.75;10.35;;;;;;;11.67;46.08;101941.28;5032278;28;20087;-46
2023/04/27 10:45:05;;;;;;;19.80;10.40;;;;;;;11.66;46.44;101941.59;5032127;28;20029;-45
2023/04/27 10:47:41;;;;;;;20.23;9.75;;;;;;;11.70;45.56;101939.88;5032060;28;20095;-46
2023/04/27 10:50:10;;;;;;;17.23;9.38;;;;;;;11.76;43.94;101935.13;5032002;28;20351;-45
2023/04/27 10:52:39;;;;;;;19.20;9.88;;;;;;;11.77;44.23;101934.03;5032443;28;20549;-47
2023/04/27 10:55:20;;;;;;;18.42;9.65;;;;;;;11.90;45.54;101929.78;5032036;28;20065;-47
2023/04/27 10:57:46;;;;;;;18.73;9.60;;;;;;;11.92;43.83;101933.09;5031924;28;20389;-47
2023/04/27 11:00:14;;;;;;;18.85;9.65;;;;;;;11.93;44.34;101926.44;5032019;28;20061;-46
2023/04/27 11:02:39;;;;;;;18.77;9.80;;;;;;;12.11;46.57;101922.97;5032085;28;20033;-45
2023/04/27 11:05:16;;;;;;;18.90;10.15;;;;;;;12.21;45.58;101930.38;5032271;28;20527;-45
2023/04/27 11:07:41;;;;;;;20.52;10.52;;;;;;;12.32;45.15;101920.84;5032273;28;20033;-46
2023/04/27 11:10:08;;;;;;;19.52;10.18;;;;;;;12.36;43.75;101923.88;5032065;28;20508;-45
2023/04/27 11:12:33;;;;;;;19.90;10.50;;;;;;;12.23;44.13;101913.47;5032031;28;20073;-45